sensor_id;sensor_type;location;lat;lon;timestamp;pressure;altitude;pressure_sealevel;temperature;humidity
84861;BME280;75116;42.644;23.274;2024-03-08T00:00:44;92902.84;;;2.42;100.00
84861;BME280;75116;42.644;23.274;2024-03-08T00:03:09;92895.22;;;2.80;100.00
84861;BME280;75116;42.644;23.274;2024-03-08T00:05:36;92898.38;;;2.53;100.00
84861;BME280;75116;42.644;23.274;2024-03-08T00:08:04;92870.69;;;2.36;100.00
84861;BME280;75116;42.644;23.274;2024-03-08T00:10:30;92893.38;;;2.42;100.00
84861;BME280;75116;42.644;23.274;2024-03-08T00:12:56;92881.56;;;2.23;100.00
84861;BME280;75116;42.644;23.274;2024-03-08T00:15:23;92901.81;;;2.19;100.00
84861;BME280;75116;42.644;23.274;2024-03-08T00:17:48;92901.22;;;2.03;100.00
84861;BME280;75116;42.644;23.274;2024-03-08T00:20:15;92901.13;;;2.14;100.00
84861;BME280;75116;42.644;23.274;2024-03-08T00:22:43;92897.81;;;2.13;100.00
84861;BME280;75116;42.644;23.274;2024-03-08T00:25:09;92891.53;;;2.00;100.00
84861;BME280;75116;42.644;23.274;2024-03-08T00:27:35;92878.59;;;1.92;100.00
84861;BME280;75116;42.644;23.274;2024-03-08T00:30:02;92887.41;;;2.04;100.00
84861;BME280;75116;42.644;23.274;2024-03-08T00:32:27;92881.09;;;1.97;100.00
84861;BME280;75116;42.644;23.274;2024-03-08T00:34:53;92858.25;;;1.81;100.00
84861;BME280;75116;42.644;23.274;2024-03-08T00:37:22;92859.84;;;1.77;100.00
84861;BME280;75116;42.644;23.274;2024-03-08T00:39:51;92864.13;;;1.82;100.00
84861;BME280;75116;42.644;23.274;2024-03-08T00:42:17;92884.69;;;1.96;100.00
84861;BME280;75116;42.644;23.274;2024-03-08T00:44:43;92860.75;;;1.87;100.00
84861;BME280;75116;42.644;23.274;2024-03-08T00:47:09;92868.94;;;2.13;100.00
84861;BME280;75116;42.644;23.274;2024-03-08T00:49:35;92876.06;;;1.92;100.00
84861;BME280;75116;42.644;23.274;2024-03-08T00:52:02;92863.31;;;1.87;100.00
84861;BME280;75116;42.644;23.274;2024-03-08T00:54:28;92858.38;;;1.95;100.00
84861;BME280;75116;42.644;23.274;2024-03-08T00:56:53;92866.09;;;2.14;100.00
84861;BME280;75116;42.644;23.274;2024-03-08T00:59:19;92861.63;;;2.01;100.00
84861;BME280;75116;42.644;23.274;2024-03-08T01:01:45;92867.44;;;1.83;100.00
84861;BME280;75116;42.644;23.274;2024-03-08T01:04:10;92864.22;;;1.72;100.00
84861;BME280;75116;42.644;23.274;2024-03-08T01:06:36;92864.47;;;1.75;100.00
84861;BME280;75116;42.644;23.274;2024-03-08T01:09:02;92847.47;;;1.61;100.00
84861;BME280;75116;42.644;23.274;2024-03-08T01:11:28;92862.38;;;1.77;100.00
84861;BME280;75116;42.644;23.274;2024-03-08T01:13:54;92861.63;;;2.01;100.00
84861;BME280;75116;42.644;23.274;2024-03-08T01:16:19;92842.53;;;2.17;100.00
84861;BME280;75116;42.644;23.274;2024-03-08T01:18:46;92857.38;;;2.58;100.00
84861;BME280;75116;42.644;23.274;2024-03-08T01:21:12;92852.13;;;2.87;100.00
84861;BME280;75116;42.644;23.274;2024-03-08T01:23:39;92822.53;;;2.99;100.00
84861;BME280;75116;42.644;23.274;2024-03-08T01:26:05;92852.94;;;3.20;99.38
84861;BME280;75116;42.644;23.274;2024-03-08T01:28:31;92839.84;;;3.54;98.95
84861;BME280;75116;42.644;23.274;2024-03-08T01:30:59;92847.78;;;3.85;97.64
84861;BME280;75116;42.644;23.274;2024-03-08T01:33:26;92843.69;;;3.84;93.82
84861;BME280;75116;42.644;23.274;2024-03-08T01:35:55;92842.63;;;3.71;92.19
84861;BME280;75116;42.644;23.274;2024-03-08T01:38:20;92844.38;;;4.03;92.96
84861;BME280;75116;42.644;23.274;2024-03-08T01:40:47;92839.19;;;3.62;91.22
84861;BME280;75116;42.644;23.274;2024-03-08T01:43:28;92840.00;;;3.44;91.57
84861;BME280;75116;42.644;23.274;2024-03-08T01:46:00;92842.84;;;3.42;92.45
84861;BME280;75116;42.644;23.274;2024-03-08T01:48:29;92837.56;;;3.52;94.47
84861;BME280;75116;42.644;23.274;2024-03-08T01:50:58;92831.94;;;3.37;91.12
84861;BME280;75116;42.644;23.274;2024-03-08T01:53:24;92844.97;;;3.54;90.63
84861;BME280;75116;42.644;23.274;2024-03-08T01:55:56;92848.63;;;3.34;90.78
84861;BME280;75116;42.644;23.274;2024-03-08T01:58:22;92829.75;;;3.30;92.03
84861;BME280;75116;42.644;23.274;2024-03-08T02:00:49;92847.06;;;3.52;94.07
84861;BME280;75116;42.644;23.274;2024-03-08T02:03:17;92846.34;;;2.81;91.50
84861;BME280;75116;42.644;23.274;2024-03-08T02:05:43;92833.41;;;1.87;93.29
84861;BME280;75116;42.644;23.274;2024-03-08T02:08:09;92838.84;;;1.80;94.85
84861;BME280;75116;42.644;23.274;2024-03-08T02:10:46;92830.09;;;2.10;97.81
84861;BME280;75116;42.644;23.274;2024-03-08T02:13:11;92825.41;;;1.70;96.36
84861;BME280;75116;42.644;23.274;2024-03-08T02:15:57;92845.63;;;1.90;98.18
84861;BME280;75116;42.644;23.274;2024-03-08T02:18:25;92837.78;;;2.10;96.58
84861;BME280;75116;42.644;23.274;2024-03-08T02:23:20;92818.34;;;1.86;95.77
84861;BME280;75116;42.644;23.274;2024-03-08T02:25:46;92826.63;;;2.01;94.67
84861;BME280;75116;42.644;23.274;2024-03-08T02:28:13;92840.09;;;2.07;95.31
84861;BME280;75116;42.644;23.274;2024-03-08T02:30:40;92847.88;;;2.39;97.53
84861;BME280;75116;42.644;23.274;2024-03-08T02:33:06;92846.19;;;2.11;94.83
84861;BME280;75116;42.644;23.274;2024-03-08T02:35:32;92844.28;;;1.74;95.92
84861;BME280;75116;42.644;23.274;2024-03-08T02:37:58;92854.53;;;1.69;97.19
84861;BME280;75116;42.644;23.274;2024-03-08T02:40:24;92840.38;;;1.58;98.46
84861;BME280;75116;42.644;23.274;2024-03-08T02:42:49;92812.84;;;1.49;98.31
84861;BME280;75116;42.644;23.274;2024-03-08T02:45:15;92854.50;;;1.74;98.92
84861;BME280;75116;42.644;23.274;2024-03-08T02:47:40;92848.88;;;1.72;97.18
84861;BME280;75116;42.644;23.274;2024-03-08T02:50:07;92847.06;;;1.77;97.08
84861;BME280;75116;42.644;23.274;2024-03-08T02:52:35;92858.06;;;1.73;98.78
84861;BME280;75116;42.644;23.274;2024-03-08T02:55:04;92857.56;;;1.76;100.00
84861;BME280;75116;42.644;23.274;2024-03-08T02:57:33;92860.75;;;1.87;97.36
84861;BME280;75116;42.644;23.274;2024-03-08T02:59:58;92860.97;;;1.90;98.94
84861;BME280;75116;42.644;23.274;2024-03-08T03:02:27;92841.75;;;1.45;100.00
84861;BME280;75116;42.644;23.274;2024-03-08T03:04:52;92867.50;;;1.48;100.00
84861;BME280;75116;42.644;23.274;2024-03-08T03:07:18;92863.50;;;1.37;100.00
84861;BME280;75116;42.644;23.274;2024-03-08T03:09:44;92854.41;;;1.26;100.00
84861;BME280;75116;42.644;23.274;2024-03-08T03:12:10;92850.50;;;1.34;100.00
84861;BME280;75116;42.644;23.274;2024-03-08T03:14:36;92818.09;;;1.05;99.36
84861;BME280;75116;42.644;23.274;2024-03-08T03:17:04;92864.63;;;1.55;99.46
84861;BME280;75116;42.644;23.274;2024-03-08T03:19:30;92865.56;;;1.64;96.90
84861;BME280;75116;42.644;23.274;2024-03-08T03:21:55;92867.63;;;1.91;97.32
84861;BME280;75116;42.644;23.274;2024-03-08T03:24:23;92847.66;;;1.93;95.50
84861;BME280;75116;42.644;23.274;2024-03-08T03:26:49;92839.81;;;1.85;93.86
84861;BME280;75116;42.644;23.274;2024-03-08T03:29:15;92864.13;;;2.06;92.96
84861;BME280;75116;42.644;23.274;2024-03-08T03:31:42;92850.06;;;2.08;91.85
84861;BME280;75116;42.644;23.274;2024-03-08T03:34:12;92880.44;;;2.34;92.49
84861;BME280;75116;42.644;23.274;2024-03-08T03:36:38;92854.66;;;2.30;91.97
84861;BME280;75116;42.644;23.274;2024-03-08T03:39:08;92844.28;;;2.22;89.30
84861;BME280;75116;42.644;23.274;2024-03-08T03:41:42;92877.81;;;2.39;89.66
84861;BME280;75116;42.644;23.274;2024-03-08T03:44:09;92872.66;;;2.44;90.52
84861;BME280;75116;42.644;23.274;2024-03-08T03:46:35;92866.56;;;2.59;90.50
84861;BME280;75116;42.644;23.274;2024-03-08T03:49:01;92885.28;;;2.78;89.63
84861;BME280;75116;42.644;23.274;2024-03-08T03:51:26;92881.88;;;2.83;90.19
84861;BME280;75116;42.644;23.274;2024-03-08T03:53:52;92867.69;;;2.71;90.03
84861;BME280;75116;42.644;23.274;2024-03-08T03:56:18;92866.03;;;3.18;91.64
84861;BME280;75116;42.644;23.274;2024-03-08T03:58:44;92897.84;;;3.63;88.97
84861;BME280;75116;42.644;23.274;2024-03-08T04:01:10;92888.59;;;3.49;86.57
84861;BME280;75116;42.644;23.274;2024-03-08T04:03:35;92895.97;;;3.37;90.73
84861;BME280;75116;42.644;23.274;2024-03-08T04:06:04;92893.34;;;3.23;89.63
84861;BME280;75116;42.644;23.274;2024-03-08T04:08:29;92892.19;;;3.15;86.29
84861;BME280;75116;42.644;23.274;2024-03-08T04:10:55;92904.81;;;3.25;88.56
84861;BME280;75116;42.644;23.274;2024-03-08T04:13:21;92886.13;;;3.25;92.13
84861;BME280;75116;42.644;23.274;2024-03-08T04:15:46;92903.22;;;3.48;91.50
84861;BME280;75116;42.644;23.274;2024-03-08T04:18:14;92900.19;;;3.60;90.07
84861;BME280;75116;42.644;23.274;2024-03-08T04:20:39;92913.13;;;4.15;90.40
84861;BME280;75116;42.644;23.274;2024-03-08T04:23:06;92910.06;;;4.13;88.83
84861;BME280;75116;42.644;23.274;2024-03-08T04:25:31;92907.69;;;4.16;87.25
84861;BME280;75116;42.644;23.274;2024-03-08T04:27:57;92919.84;;;4.11;88.42
84861;BME280;75116;42.644;23.274;2024-03-08T04:30:23;92891.13;;;3.68;87.61
84861;BME280;75116;42.644;23.274;2024-03-08T04:32:49;92920.41;;;3.94;89.75
84861;BME280;75116;42.644;23.274;2024-03-08T04:35:15;92918.53;;;4.13;85.53
84861;BME280;75116;42.644;23.274;2024-03-08T04:37:41;92921.19;;;4.08;88.21
84861;BME280;75116;42.644;23.274;2024-03-08T04:40:07;92914.53;;;4.07;87.19
84861;BME280;75116;42.644;23.274;2024-03-08T04:42:33;92926.53;;;4.26;84.03
84861;BME280;75116;42.644;23.274;2024-03-08T04:44:59;92927.66;;;4.47;89.27
84861;BME280;75116;42.644;23.274;2024-03-08T04:47:25;92933.94;;;4.54;86.51
84861;BME280;75116;42.644;23.274;2024-03-08T04:49:51;92931.66;;;4.67;87.41
84861;BME280;75116;42.644;23.274;2024-03-08T04:52:16;92908.38;;;4.22;88.00
84861;BME280;75116;42.644;23.274;2024-03-08T04:54:43;92922.06;;;4.59;87.10
84861;BME280;75116;42.644;23.274;2024-03-08T04:57:09;92936.69;;;4.31;87.18
84861;BME280;75116;42.644;23.274;2024-03-08T04:59:36;92937.47;;;4.59;88.72
84861;BME280;75116;42.644;23.274;2024-03-08T05:02:01;92931.28;;;4.46;82.16
84861;BME280;75116;42.644;23.274;2024-03-08T05:04:30;92943.53;;;4.35;84.84
84861;BME280;75116;42.644;23.274;2024-03-08T05:06:56;92935.28;;;4.38;86.46
84861;BME280;75116;42.644;23.274;2024-03-08T05:09:21;92937.75;;;4.43;84.16
84861;BME280;75116;42.644;23.274;2024-03-08T05:11:50;92928.06;;;4.40;84.24
84861;BME280;75116;42.644;23.274;2024-03-08T05:14:16;92916.06;;;4.22;77.86
84861;BME280;75116;42.644;23.274;2024-03-08T05:16:46;92949.31;;;4.27;86.95
84861;BME280;75116;42.644;23.274;2024-03-08T05:19:16;92938.22;;;4.18;86.43
84861;BME280;75116;42.644;23.274;2024-03-08T05:21:48;92932.50;;;4.07;86.52
84861;BME280;75116;42.644;23.274;2024-03-08T05:24:14;92953.59;;;4.18;80.39
84861;BME280;75116;42.644;23.274;2024-03-08T05:26:42;92912.34;;;3.54;81.36
84861;BME280;75116;42.644;23.274;2024-03-08T05:29:08;92914.41;;;3.52;86.05
84861;BME280;75116;42.644;23.274;2024-03-08T05:31:55;92916.19;;;2.15;84.98
84861;BME280;75116;42.644;23.274;2024-03-08T05:34:22;92938.22;;;2.35;85.52
84861;BME280;75116;42.644;23.274;2024-03-08T05:36:48;92920.41;;;2.91;89.78
84861;BME280;75116;42.644;23.274;2024-03-08T05:39:18;92895.28;;;2.32;86.60
84861;BME280;75116;42.644;23.274;2024-03-08T05:41:44;92998.34;;;2.80;92.26
84861;BME280;75116;42.644;23.274;2024-03-08T05:44:11;92992.03;;;2.20;88.62
84861;BME280;75116;42.644;23.274;2024-03-08T05:46:38;92963.19;;;2.67;93.88
84861;BME280;75116;42.644;23.274;2024-03-08T05:49:04;92994.41;;;3.30;93.29
84861;BME280;75116;42.644;23.274;2024-03-08T05:51:34;92928.25;;;1.80;88.36
84861;BME280;75116;42.644;23.274;2024-03-08T05:54:04;93006.59;;;2.72;89.41
84861;BME280;75116;42.644;23.274;2024-03-08T05:56:31;93007.78;;;3.03;88.74
84861;BME280;75116;42.644;23.274;2024-03-08T05:58:57;92940.44;;;1.89;88.18
84861;BME280;75116;42.644;23.274;2024-03-08T06:01:24;92996.63;;;2.23;91.07
84861;BME280;75116;42.644;23.274;2024-03-08T06:03:53;92975.75;;;2.39;94.92
84861;BME280;75116;42.644;23.274;2024-03-08T06:06:22;92953.06;;;1.46;89.47
84861;BME280;75116;42.644;23.274;2024-03-08T06:08:48;92951.41;;;1.89;92.93
84861;BME280;75116;42.644;23.274;2024-03-08T06:11:18;92975.53;;;2.60;92.62
84861;BME280;75116;42.644;23.274;2024-03-08T06:13:44;93012.97;;;2.98;90.32
84861;BME280;75116;42.644;23.274;2024-03-08T06:16:10;93021.91;;;2.53;89.83
84861;BME280;75116;42.644;23.274;2024-03-08T06:18:43;92973.84;;;2.26;91.62
84861;BME280;75116;42.644;23.274;2024-03-08T06:21:09;92967.25;;;2.68;93.52
84861;BME280;75116;42.644;23.274;2024-03-08T06:23:36;93011.41;;;3.21;93.33
84861;BME280;75116;42.644;23.274;2024-03-08T06:26:07;93022.09;;;3.47;91.28
84861;BME280;75116;42.644;23.274;2024-03-08T06:28:33;93000.69;;;3.38;88.66
84861;BME280;75116;42.644;23.274;2024-03-08T06:31:00;92966.50;;;3.48;90.02
84861;BME280;75116;42.644;23.274;2024-03-08T06:33:25;93021.06;;;3.48;89.44
84861;BME280;75116;42.644;23.274;2024-03-08T06:35:54;93025.25;;;3.77;87.22
84861;BME280;75116;42.644;23.274;2024-03-08T06:38:25;92982.66;;;3.06;87.35
84861;BME280;75116;42.644;23.274;2024-03-08T06:40:52;93015.25;;;2.28;87.37
84861;BME280;75116;42.644;23.274;2024-03-08T06:43:18;92992.06;;;1.51;90.85
84861;BME280;75116;42.644;23.274;2024-03-08T06:45:44;93042.47;;;1.41;95.31
84861;BME280;75116;42.644;23.274;2024-03-08T06:48:19;93043.59;;;1.14;93.69
84861;BME280;75116;42.644;23.274;2024-03-08T06:50:46;93042.31;;;1.17;94.46
84861;BME280;75116;42.644;23.274;2024-03-08T06:53:12;93023.25;;;1.04;95.76
84861;BME280;75116;42.644;23.274;2024-03-08T06:55:39;93035.22;;;1.04;96.45
84861;BME280;75116;42.644;23.274;2024-03-08T06:58:04;93016.66;;;0.93;97.09
84861;BME280;75116;42.644;23.274;2024-03-08T07:00:32;93027.59;;;0.99;97.65
84861;BME280;75116;42.644;23.274;2024-03-08T07:02:58;93024.63;;;0.76;97.70
84861;BME280;75116;42.644;23.274;2024-03-08T07:05:29;93004.72;;;0.78;98.19
84861;BME280;75116;42.644;23.274;2024-03-08T07:07:55;93042.13;;;0.98;96.74
84861;BME280;75116;42.644;23.274;2024-03-08T07:10:22;93033.69;;;1.03;97.74
84861;BME280;75116;42.644;23.274;2024-03-08T07:12:50;93043.31;;;1.21;96.78
84861;BME280;75116;42.644;23.274;2024-03-08T07:15:16;93047.66;;;1.15;96.03
84861;BME280;75116;42.644;23.274;2024-03-08T07:17:45;93044.34;;;1.15;95.98
84861;BME280;75116;42.644;23.274;2024-03-08T07:20:11;93051.75;;;1.22;96.07
84861;BME280;75116;42.644;23.274;2024-03-08T07:22:39;93044.38;;;1.10;96.81
84861;BME280;75116;42.644;23.274;2024-03-08T07:25:05;93050.69;;;1.28;96.76
84861;BME280;75116;42.644;23.274;2024-03-08T07:27:53;93058.38;;;1.23;96.13
84861;BME280;75116;42.644;23.274;2024-03-08T07:30:21;93047.50;;;0.97;93.89
84861;BME280;75116;42.644;23.274;2024-03-08T07:33:05;93058.63;;;1.21;95.40
84861;BME280;75116;42.644;23.274;2024-03-08T07:35:33;92997.78;;;0.84;95.30
84861;BME280;75116;42.644;23.274;2024-03-08T07:37:58;93047.94;;;1.14;92.40
84861;BME280;75116;42.644;23.274;2024-03-08T07:40:25;93014.13;;;0.88;91.62
84861;BME280;75116;42.644;23.274;2024-03-08T07:42:52;93065.00;;;1.24;93.54
84861;BME280;75116;42.644;23.274;2024-03-08T07:45:17;93065.50;;;1.26;93.28
84861;BME280;75116;42.644;23.274;2024-03-08T07:47:43;93004.91;;;0.92;93.61
84861;BME280;75116;42.644;23.274;2024-03-08T07:50:09;93067.16;;;1.50;93.30
84861;BME280;75116;42.644;23.274;2024-03-08T07:52:35;93031.78;;;1.29;92.16
84861;BME280;75116;42.644;23.274;2024-03-08T07:55:04;93068.41;;;1.53;92.04
84861;BME280;75116;42.644;23.274;2024-03-08T07:57:30;93066.00;;;1.77;89.49
84861;BME280;75116;42.644;23.274;2024-03-08T07:59:57;93053.97;;;1.77;89.47
84861;BME280;75116;42.644;23.274;2024-03-08T08:02:35;93072.41;;;1.69;87.67
84861;BME280;75116;42.644;23.274;2024-03-08T08:05:01;93056.63;;;1.62;88.36
84861;BME280;75116;42.644;23.274;2024-03-08T08:07:27;93073.06;;;1.46;85.98
84861;BME280;75116;42.644;23.274;2024-03-08T08:09:53;93062.28;;;1.54;87.43
84861;BME280;75116;42.644;23.274;2024-03-08T08:12:19;93070.44;;;1.61;85.48
84861;BME280;75116;42.644;23.274;2024-03-08T08:14:44;93061.41;;;1.74;88.17
84861;BME280;75116;42.644;23.274;2024-03-08T08:17:10;93011.84;;;1.75;86.96
84861;BME280;75116;42.644;23.274;2024-03-08T08:19:37;93039.22;;;2.32;85.78
84861;BME280;75116;42.644;23.274;2024-03-08T08:22:04;93026.78;;;2.26;85.81
84861;BME280;75116;42.644;23.274;2024-03-08T08:24:29;93075.72;;;2.43;85.67
84861;BME280;75116;42.644;23.274;2024-03-08T08:26:55;93039.78;;;2.29;83.49
84861;BME280;75116;42.644;23.274;2024-03-08T08:29:21;92998.75;;;2.87;82.22
84861;BME280;75116;42.644;23.274;2024-03-08T08:31:49;93071.38;;;3.96;82.64
84861;BME280;75116;42.644;23.274;2024-03-08T08:34:18;93029.25;;;3.64;77.67
84861;BME280;75116;42.644;23.274;2024-03-08T08:36:45;93073.28;;;3.28;82.21
84861;BME280;75116;42.644;23.274;2024-03-08T08:39:10;93067.59;;;2.65;82.87
84861;BME280;75116;42.644;23.274;2024-03-08T08:41:39;93068.72;;;3.01;84.18
84861;BME280;75116;42.644;23.274;2024-03-08T08:44:07;93039.50;;;3.45;82.72
84861;BME280;75116;42.644;23.274;2024-03-08T08:46:37;93062.38;;;4.31;81.26
84861;BME280;75116;42.644;23.274;2024-03-08T08:49:12;93042.63;;;3.80;79.64
84861;BME280;75116;42.644;23.274;2024-03-08T08:51:40;93023.69;;;4.73;79.65
84861;BME280;75116;42.644;23.274;2024-03-08T08:54:07;93051.50;;;5.98;73.70
84861;BME280;75116;42.644;23.274;2024-03-08T08:56:32;93048.81;;;6.57;69.34
84861;BME280;75116;42.644;23.274;2024-03-08T08:58:58;93057.34;;;8.32;67.20
84861;BME280;75116;42.644;23.274;2024-03-08T09:01:23;93050.38;;;8.15;61.84
84861;BME280;75116;42.644;23.274;2024-03-08T09:03:49;93038.25;;;7.46;65.30
84861;BME280;75116;42.644;23.274;2024-03-08T09:06:15;93040.34;;;5.89;69.22
84861;BME280;75116;42.644;23.274;2024-03-08T09:08:44;93065.53;;;4.41;74.92
84861;BME280;75116;42.644;23.274;2024-03-08T09:11:10;93066.94;;;3.45;77.96
84861;BME280;75116;42.644;23.274;2024-03-08T09:13:36;93051.72;;;3.53;77.35
84861;BME280;75116;42.644;23.274;2024-03-08T09:16:04;93018.75;;;4.17;76.03
84861;BME280;75116;42.644;23.274;2024-03-08T09:18:33;93041.63;;;5.78;71.18
84861;BME280;75116;42.644;23.274;2024-03-08T09:20:58;93032.34;;;5.55;69.58
84861;BME280;75116;42.644;23.274;2024-03-08T09:23:25;93038.78;;;6.24;66.94
84861;BME280;75116;42.644;23.274;2024-03-08T09:25:58;93049.25;;;4.78;70.90
84861;BME280;75116;42.644;23.274;2024-03-08T09:28:24;93025.72;;;4.44;73.49
84861;BME280;75116;42.644;23.274;2024-03-08T09:30:50;93065.91;;;4.95;73.45
84861;BME280;75116;42.644;23.274;2024-03-08T09:33:16;93004.47;;;4.71;72.29
84861;BME280;75116;42.644;23.274;2024-03-08T09:35:45;93025.97;;;5.88;71.21
84861;BME280;75116;42.644;23.274;2024-03-08T09:38:16;93042.03;;;5.22;70.53
84861;BME280;75116;42.644;23.274;2024-03-08T09:40:42;93040.56;;;5.93;68.40
84861;BME280;75116;42.644;23.274;2024-03-08T09:43:09;93067.97;;;6.64;68.32
84861;BME280;75116;42.644;23.274;2024-03-08T09:45:37;93005.81;;;5.82;65.04
84861;BME280;75116;42.644;23.274;2024-03-08T09:48:10;93053.38;;;7.31;67.19
84861;BME280;75116;42.644;23.274;2024-03-08T09:50:42;93034.03;;;7.02;65.18
84861;BME280;75116;42.644;23.274;2024-03-08T09:53:08;93014.97;;;6.10;64.63
84861;BME280;75116;42.644;23.274;2024-03-08T09:55:38;93040.25;;;6.39;69.21
84861;BME280;75116;42.644;23.274;2024-03-08T09:58:15;93039.72;;;5.20;65.57
84861;BME280;75116;42.644;23.274;2024-03-08T10:00:43;93022.88;;;5.41;65.34
84861;BME280;75116;42.644;23.274;2024-03-08T10:03:09;93059.56;;;6.28;62.45
84861;BME280;75116;42.644;23.274;2024-03-08T10:05:36;93029.59;;;7.68;60.45
84861;BME280;75116;42.644;23.274;2024-03-08T10:08:02;93042.13;;;9.12;57.87
84861;BME280;75116;42.644;23.274;2024-03-08T10:10:27;93022.97;;;9.42;54.12
84861;BME280;75116;42.644;23.274;2024-03-08T10:12:53;93027.06;;;9.64;55.09
84861;BME280;75116;42.644;23.274;2024-03-08T10:15:20;93034.78;;;8.84;54.43
84861;BME280;75116;42.644;23.274;2024-03-08T10:17:45;93055.88;;;11.03;48.34
84861;BME280;75116;42.644;23.274;2024-03-08T10:20:15;93025.69;;;10.74;52.96
84861;BME280;75116;42.644;23.274;2024-03-08T10:22:41;93047.38;;;10.24;51.55
84861;BME280;75116;42.644;23.274;2024-03-08T10:25:13;93055.84;;;10.04;56.78
84861;BME280;75116;42.644;23.274;2024-03-08T10:27:39;93048.72;;;10.88;52.75
84861;BME280;75116;42.644;23.274;2024-03-08T10:30:14;93065.66;;;9.48;51.71
84861;BME280;75116;42.644;23.274;2024-03-08T10:32:40;93064.59;;;10.86;54.19
84861;BME280;75116;42.644;23.274;2024-03-08T10:35:09;93031.38;;;9.01;54.37
84861;BME280;75116;42.644;23.274;2024-03-08T10:37:49;93061.16;;;7.00;58.28
84861;BME280;75116;42.644;23.274;2024-03-08T10:40:29;93055.56;;;6.22;60.07
84861;BME280;75116;42.644;23.274;2024-03-08T10:42:59;93009.72;;;7.95;56.77
84861;BME280;75116;42.644;23.274;2024-03-08T10:45:34;93031.97;;;8.68;54.36
84861;BME280;75116;42.644;23.274;2024-03-08T10:50:42;92987.75;;;6.80;65.77
84861;BME280;75116;42.644;23.274;2024-03-08T10:53:13;93036.56;;;8.45;56.97
84861;BME280;75116;42.644;23.274;2024-03-08T10:55:40;93005.41;;;7.12;58.34
84861;BME280;75116;42.644;23.274;2024-03-08T10:58:06;93044.38;;;5.95;61.66
84861;BME280;75116;42.644;23.274;2024-03-08T11:00:34;93007.09;;;6.38;64.20
84861;BME280;75116;42.644;23.274;2024-03-08T11:03:00;93022.59;;;6.77;66.41
84861;BME280;75116;42.644;23.274;2024-03-08T11:05:35;93028.84;;;8.02;64.25
84861;BME280;75116;42.644;23.274;2024-03-08T11:08:16;93023.97;;;8.27;59.46
84861;BME280;75116;42.644;23.274;2024-03-08T11:10:51;92955.88;;;7.67;62.34
84861;BME280;75116;42.644;23.274;2024-03-08T11:13:36;93024.84;;;8.95;58.42
84861;BME280;75116;42.644;23.274;2024-03-08T11:16:03;93002.31;;;8.66;54.77
84861;BME280;75116;42.644;23.274;2024-03-08T11:18:33;93013.34;;;7.42;58.79
84861;BME280;75116;42.644;23.274;2024-03-08T11:21:02;93022.59;;;6.24;62.49
84861;BME280;75116;42.644;23.274;2024-03-08T11:23:32;92993.91;;;5.50;62.65
84861;BME280;75116;42.644;23.274;2024-03-08T11:25:59;93018.66;;;6.80;63.31
84861;BME280;75116;42.644;23.274;2024-03-08T11:28:25;92994.88;;;6.43;59.58
84861;BME280;75116;42.644;23.274;2024-03-08T11:33:27;93003.28;;;8.53;52.90
84861;BME280;75116;42.644;23.274;2024-03-08T11:36:10;92976.47;;;5.60;60.61
84861;BME280;75116;42.644;23.274;2024-03-08T11:38:44;92982.75;;;6.44;58.28
84861;BME280;75116;42.644;23.274;2024-03-08T11:41:13;92948.72;;;7.12;56.56
84861;BME280;75116;42.644;23.274;2024-03-08T11:43:42;93004.13;;;7.67;58.39
84861;BME280;75116;42.644;23.274;2024-03-08T11:46:11;92980.00;;;7.71;55.13
84861;BME280;75116;42.644;23.274;2024-03-08T11:48:44;93003.38;;;7.83;60.51
84861;BME280;75116;42.644;23.274;2024-03-08T11:51:12;92992.84;;;6.71;60.46
84861;BME280;75116;42.644;23.274;2024-03-08T11:53:39;92986.53;;;6.15;62.08
84861;BME280;75116;42.644;23.274;2024-03-08T11:56:10;92968.97;;;5.50;64.21
84861;BME280;75116;42.644;23.274;2024-03-08T11:58:37;92932.63;;;5.88;62.28
84861;BME280;75116;42.644;23.274;2024-03-08T12:01:04;92969.38;;;7.38;59.51
84861;BME280;75116;42.644;23.274;2024-03-08T12:03:31;92969.38;;;7.81;60.72
84861;BME280;75116;42.644;23.274;2024-03-08T12:06:01;92997.00;;;6.81;63.03
84861;BME280;75116;42.644;23.274;2024-03-08T12:08:30;92953.63;;;6.03;60.64
84861;BME280;75116;42.644;23.274;2024-03-08T12:10:57;93002.50;;;6.03;63.58
84861;BME280;75116;42.644;23.274;2024-03-08T12:13:27;92938.06;;;5.41;63.36
84861;BME280;75116;42.644;23.274;2024-03-08T12:15:58;92982.41;;;5.47;63.38
84861;BME280;75116;42.644;23.274;2024-03-08T12:18:28;92960.94;;;5.29;62.89
84861;BME280;75116;42.644;23.274;2024-03-08T12:21:04;93001.16;;;5.70;62.09
84861;BME280;75116;42.644;23.274;2024-03-08T12:23:36;92928.88;;;6.56;61.00
84861;BME280;75116;42.644;23.274;2024-03-08T12:26:16;92962.16;;;6.92;56.38
84861;BME280;75116;42.644;23.274;2024-03-08T12:28:43;92984.41;;;6.88;59.10
84861;BME280;75116;42.644;23.274;2024-03-08T12:31:18;92985.16;;;7.54;55.64
84861;BME280;75116;42.644;23.274;2024-03-08T12:36:15;92941.78;;;7.47;56.89
84861;BME280;75116;42.644;23.274;2024-03-08T12:38:44;92987.56;;;7.59;54.71
84861;BME280;75116;42.644;23.274;2024-03-08T12:41:19;92948.28;;;7.19;55.81
84861;BME280;75116;42.644;23.274;2024-03-08T12:43:46;92944.31;;;7.04;55.51
84861;BME280;75116;42.644;23.274;2024-03-08T12:46:18;92963.25;;;7.00;58.83
84861;BME280;75116;42.644;23.274;2024-03-08T12:48:51;92930.34;;;6.40;56.30
84861;BME280;75116;42.644;23.274;2024-03-08T12:51:20;92963.16;;;7.31;58.68
84861;BME280;75116;42.644;23.274;2024-03-08T12:53:46;92939.88;;;6.79;58.08
84861;BME280;75116;42.644;23.274;2024-03-08T12:56:13;92919.34;;;5.41;59.58
84861;BME280;75116;42.644;23.274;2024-03-08T12:58:40;92934.19;;;6.20;60.21
84861;BME280;75116;42.644;23.274;2024-03-08T13:01:06;92949.22;;;6.26;58.66
84861;BME280;75116;42.644;23.274;2024-03-08T13:03:34;92950.41;;;6.60;63.57
84861;BME280;75116;42.644;23.274;2024-03-08T13:06:04;92978.72;;;7.08;59.81
84861;BME280;75116;42.644;23.274;2024-03-08T13:08:37;92959.78;;;5.94;61.48
84861;BME280;75116;42.644;23.274;2024-03-08T13:11:06;92908.66;;;5.11;63.74